sensor_id;sensor_type;location;lat;lon;timestamp;pressure;altitude;pressure_sealevel;temperature;humidity
21779;BME280;11050;52.222;20.916;2022-09-23T00:01:07;100612.75;;;8.88;100.00
21779;BME280;11050;52.222;20.916;2022-09-23T00:03:36;100607.50;;;8.87;100.00
21779;BME280;11050;52.222;20.916;2022-09-23T00:06:09;100601.06;;;8.81;100.00
21779;BME280;11050;52.222;20.916;2022-09-23T00:08:36;100608.00;;;8.84;100.00
21779;BME280;11050;52.222;20.916;2022-09-23T00:13:35;100597.34;;;8.76;100.00
21779;BME280;11050;52.222;20.916;2022-09-23T00:16:07;100605.47;;;8.71;100.00
21779;BME280;11050;52.222;20.916;2022-09-23T00:18:34;100602.13;;;8.69;100.00
21779;BME280;11050;52.222;20.916;2022-09-23T00:21:06;100606.28;;;8.71;100.00
21779;BME280;11050;52.222;20.916;2022-09-23T00:23:33;100613.69;;;8.71;100.00
21779;BME280;11050;52.222;20.916;2022-09-23T00:26:02;100607.84;;;8.67;100.00
21779;BME280;11050;52.222;20.916;2022-09-23T00:28:30;100603.88;;;8.63;100.00
21779;BME280;11050;52.222;20.916;2022-09-23T00:31:00;100603.03;;;8.63;100.00
21779;BME280;11050;52.222;20.916;2022-09-23T00:33:26;100606.47;;;8.58;100.00
21779;BME280;11050;52.222;20.916;2022-09-23T00:36:01;100599.81;;;8.54;100.00
21779;BME280;11050;52.222;20.916;2022-09-23T00:38:28;100596.06;;;8.48;100.00
21779;BME280;11050;52.222;20.916;2022-09-23T00:40:54;100598.59;;;8.50;100.00
21779;BME280;11050;52.222;20.916;2022-09-23T00:46:15;100591.41;;;8.37;100.00
21779;BME280;11050;52.222;20.916;2022-09-23T00:48:43;100597.47;;;8.39;100.00
21779;BME280;11050;52.222;20.916;2022-09-23T00:51:15;100600.47;;;8.38;100.00
21779;BME280;11050;52.222;20.916;2022-09-23T00:53:47;100599.63;;;8.37;100.00
21779;BME280;11050;52.222;20.916;2022-09-23T00:56:15;100598.81;;;8.37;100.00
21779;BME280;11050;52.222;20.916;2022-09-23T00:58:45;100598.81;;;8.37;100.00
21779;BME280;11050;52.222;20.916;2022-09-23T01:01:12;100603.50;;;8.30;100.00
21779;BME280;11050;52.222;20.916;2022-09-23T01:03:44;100591.50;;;8.31;100.00
21779;BME280;11050;52.222;20.916;2022-09-23T01:06:11;100589.81;;;8.30;100.00
21779;BME280;11050;52.222;20.916;2022-09-23T01:08:39;100596.75;;;8.32;100.00
21779;BME280;11050;52.222;20.916;2022-09-23T01:16:51;100582.22;;;8.32;100.00
21779;BME280;11050;52.222;20.916;2022-09-23T01:24:46;100590.25;;;8.45;100.00
21779;BME280;11050;52.222;20.916;2022-09-23T01:30:03;100588.38;;;8.57;100.00
21779;BME280;11050;52.222;20.916;2022-09-23T01:33:17;100589.09;;;8.64;100.00
21779;BME280;11050;52.222;20.916;2022-09-23T01:36:20;100595.78;;;8.68;100.00
21779;BME280;11050;52.222;20.916;2022-09-23T01:39:09;100591.28;;;8.74;100.00
21779;BME280;11050;52.222;20.916;2022-09-23T01:44:44;100585.34;;;8.88;100.00
21779;BME280;11050;52.222;20.916;2022-09-23T01:47:25;100587.13;;;8.94;100.00
21779;BME280;11050;52.222;20.916;2022-09-23T01:49:59;100575.72;;;8.97;100.00
21779;BME280;11050;52.222;20.916;2022-09-23T01:52:34;100584.53;;;8.99;100.00
21779;BME280;11050;52.222;20.916;2022-09-23T01:55:15;100583.72;;;8.99;100.00
21779;BME280;11050;52.222;20.916;2022-09-23T01:58:07;100582.50;;;8.95;100.00
21779;BME280;11050;52.222;20.916;2022-09-23T02:00:52;100577.72;;;8.90;100.00
21779;BME280;11050;52.222;20.916;2022-09-23T02:03:28;100579.75;;;8.83;100.00
21779;BME280;11050;52.222;20.916;2022-09-23T02:06:20;100579.25;;;8.75;100.00
21779;BME280;11050;52.222;20.916;2022-09-23T02:11:21;100579.06;;;8.58;100.00
21779;BME280;11050;52.222;20.916;2022-09-23T02:14:01;100584.44;;;8.53;100.00
21779;BME280;11050;52.222;20.916;2022-09-23T02:16:48;100585.25;;;8.42;100.00
21779;BME280;11050;52.222;20.916;2022-09-23T02:19:44;100573.75;;;8.33;100.00
21779;BME280;11050;52.222;20.916;2022-09-23T02:22:28;100578.06;;;8.29;100.00
21779;BME280;11050;52.222;20.916;2022-09-23T02:25:00;100584.41;;;8.23;100.00
21779;BME280;11050;52.222;20.916;2022-09-23T02:27:47;100583.44;;;8.18;100.00
21779;BME280;11050;52.222;20.916;2022-09-23T02:30:31;100583.75;;;8.10;100.00
21779;BME280;11050;52.222;20.916;2022-09-23T02:33:11;100577.91;;;8.06;100.00
21779;BME280;11050;52.222;20.916;2022-09-23T02:35:58;100583.03;;;8.03;100.00
21779;BME280;11050;52.222;20.916;2022-09-23T02:38:39;100590.47;;;7.96;100.00
21779;BME280;11050;52.222;20.916;2022-09-23T02:44:15;100573.06;;;7.90;100.00
21779;BME280;11050;52.222;20.916;2022-09-23T02:46:43;100574.13;;;7.89;100.00
21779;BME280;11050;52.222;20.916;2022-09-23T02:49:27;100577.47;;;7.91;100.00
21779;BME280;11050;52.222;20.916;2022-09-23T02:51:55;100585.69;;;7.91;100.00
21779;BME280;11050;52.222;20.916;2022-09-23T02:54:26;100579.38;;;7.91;100.00
21779;BME280;11050;52.222;20.916;2022-09-23T02:56:53;100574.97;;;7.90;100.00
21779;BME280;11050;52.222;20.916;2022-09-23T02:59:23;100585.84;;;7.96;100.00
21779;BME280;11050;52.222;20.916;2022-09-23T03:05:29;100576.56;;;7.97;100.00
21779;BME280;11050;52.222;20.916;2022-09-23T03:11:10;100582.03;;;7.97;100.00
21779;BME280;11050;52.222;20.916;2022-09-23T03:13:54;100580.13;;;7.98;100.00
21779;BME280;11050;52.222;20.916;2022-09-23T03:16:57;100586.19;;;8.00;100.00
21779;BME280;11050;52.222;20.916;2022-09-23T03:19:54;100588.13;;;7.99;100.00
21779;BME280;11050;52.222;20.916;2022-09-23T03:22:43;100584.06;;;8.02;100.00
21779;BME280;11050;52.222;20.916;2022-09-23T03:25:15;100573.84;;;7.97;100.00
21779;BME280;11050;52.222;20.916;2022-09-23T03:27:44;100583.03;;;8.03;100.00
21779;BME280;11050;52.222;20.916;2022-09-23T03:30:11;100583.84;;;8.03;100.00
21779;BME280;11050;52.222;20.916;2022-09-23T03:32:43;100573.50;;;8.05;100.00
21779;BME280;11050;52.222;20.916;2022-09-23T03:35:12;100579.19;;;8.04;100.00
21779;BME280;11050;52.222;20.916;2022-09-23T03:38:00;100579.06;;;7.99;100.00
21779;BME280;11050;52.222;20.916;2022-09-23T03:40:32;100577.25;;;7.93;100.00
21779;BME280;11050;52.222;20.916;2022-09-23T03:43:01;100576.88;;;7.89;100.00
21779;BME280;11050;52.222;20.916;2022-09-23T03:45:32;100577.56;;;7.85;100.00
21779;BME280;11050;52.222;20.916;2022-09-23T03:47:59;100566.25;;;7.81;100.00
21779;BME280;11050;52.222;20.916;2022-09-23T03:50:26;100578.63;;;7.84;100.00
21779;BME280;11050;52.222;20.916;2022-09-23T03:52:52;100568.28;;;7.86;100.00
21779;BME280;11050;52.222;20.916;2022-09-23T03:55:19;100572.94;;;7.85;100.00
21779;BME280;11050;52.222;20.916;2022-09-23T03:57:46;100570.78;;;7.87;100.00
21779;BME280;11050;52.222;20.916;2022-09-23T04:00:13;100571.63;;;7.88;100.00
21779;BME280;11050;52.222;20.916;2022-09-23T04:02:40;100569.13;;;7.86;100.00
21779;BME280;11050;52.222;20.916;2022-09-23T04:05:10;100569.94;;;7.87;100.00
21779;BME280;11050;52.222;20.916;2022-09-23T04:07:37;100568.91;;;7.88;100.00
21779;BME280;11050;52.222;20.916;2022-09-23T04:10:04;100572.06;;;7.85;100.00
21779;BME280;11050;52.222;20.916;2022-09-23T04:12:30;100577.34;;;7.86;100.00
21779;BME280;11050;52.222;20.916;2022-09-23T04:14:56;100571.28;;;7.84;100.00
21779;BME280;11050;52.222;20.916;2022-09-23T04:17:22;100570.44;;;7.84;100.00
21779;BME280;11050;52.222;20.916;2022-09-23T04:19:48;100579.47;;;7.84;100.00
21779;BME280;11050;52.222;20.916;2022-09-23T04:22:13;100572.56;;;7.82;100.00
21779;BME280;11050;52.222;20.916;2022-09-23T04:24:39;100575.28;;;7.82;100.00
21779;BME280;11050;52.222;20.916;2022-09-23T04:27:05;100578.94;;;7.76;100.00
21779;BME280;11050;52.222;20.916;2022-09-23T04:29:31;100584.41;;;7.76;100.00
21779;BME280;11050;52.222;20.916;2022-09-23T04:31:57;100576.44;;;7.74;100.00
21779;BME280;11050;52.222;20.916;2022-09-23T04:34:23;100579.78;;;7.76;100.00
21779;BME280;11050;52.222;20.916;2022-09-23T04:36:49;100587.59;;;7.73;100.00
21779;BME280;11050;52.222;20.916;2022-09-23T04:39:16;100587.84;;;7.71;100.00
21779;BME280;11050;52.222;20.916;2022-09-23T04:41:43;100587.38;;;7.74;100.00
21779;BME280;11050;52.222;20.916;2022-09-23T04:44:13;100580.44;;;7.72;100.00
21779;BME280;11050;52.222;20.916;2022-09-23T04:46:43;100574.38;;;7.69;100.00
21779;BME280;11050;52.222;20.916;2022-09-23T04:49:13;100576.06;;;7.71;100.00
21779;BME280;11050;52.222;20.916;2022-09-23T04:51:39;100578.78;;;7.71;100.00
21779;BME280;11050;52.222;20.916;2022-09-23T04:54:10;100572.41;;;7.77;100.00
21779;BME280;11050;52.222;20.916;2022-09-23T04:56:36;100573.22;;;7.77;100.00
21779;BME280;11050;52.222;20.916;2022-09-23T04:59:02;100576.81;;;7.78;100.00
21779;BME280;11050;52.222;20.916;2022-09-23T05:01:31;100581.44;;;7.77;100.00
21779;BME280;11050;52.222;20.916;2022-09-23T05:04:02;100583.50;;;7.82;100.00
21779;BME280;11050;52.222;20.916;2022-09-23T05:06:33;100578.41;;;7.85;100.00
21779;BME280;11050;52.222;20.916;2022-09-23T05:09:00;100579.84;;;7.88;100.00
21779;BME280;11050;52.222;20.916;2022-09-23T05:11:29;100565.78;;;7.84;100.00
21779;BME280;11050;52.222;20.916;2022-09-23T05:13:59;100577.38;;;7.98;100.00
21779;BME280;11050;52.222;20.916;2022-09-23T05:16:25;100574.94;;;8.08;100.00
21779;BME280;11050;52.222;20.916;2022-09-23T05:18:51;100572.50;;;8.18;100.00
21779;BME280;11050;52.222;20.916;2022-09-23T05:21:21;100570.97;;;8.22;100.00
21779;BME280;11050;52.222;20.916;2022-09-23T05:23:50;100572.63;;;8.23;100.00
21779;BME280;11050;52.222;20.916;2022-09-23T05:26:21;100572.41;;;8.24;100.00
21779;BME280;11050;52.222;20.916;2022-09-23T05:28:47;100571.38;;;8.25;100.00
21779;BME280;11050;52.222;20.916;2022-09-23T05:31:17;100573.63;;;8.28;100.00
21779;BME280;11050;52.222;20.916;2022-09-23T05:33:47;100581.28;;;8.38;100.00
21779;BME280;11050;52.222;20.916;2022-09-23T05:36:14;100581.41;;;8.43;100.00
21779;BME280;11050;52.222;20.916;2022-09-23T05:38:41;100575.56;;;8.39;100.00
21779;BME280;11050;52.222;20.916;2022-09-23T05:41:11;100576.09;;;8.48;100.00
21779;BME280;11050;52.222;20.916;2022-09-23T05:43:39;100587.44;;;8.63;100.00
21779;BME280;11050;52.222;20.916;2022-09-23T05:46:18;100579.25;;;8.75;100.00
21779;BME280;11050;52.222;20.916;2022-09-23T05:48:44;100585.78;;;8.74;100.00
21779;BME280;11050;52.222;20.916;2022-09-23T05:51:24;100591.63;;;8.77;100.00
21779;BME280;11050;52.222;20.916;2022-09-23T05:53:52;100590.38;;;8.91;100.00
21779;BME280;11050;52.222;20.916;2022-09-23T05:56:22;100593.94;;;9.03;100.00
21779;BME280;11050;52.222;20.916;2022-09-23T05:58:54;100590.38;;;9.03;100.00
21779;BME280;11050;52.222;20.916;2022-09-23T06:01:23;100596.94;;;9.13;100.00
21779;BME280;11050;52.222;20.916;2022-09-23T06:03:51;100597.66;;;9.32;100.00
21779;BME280;11050;52.222;20.916;2022-09-23T06:06:20;100592.06;;;9.50;100.00
21779;BME280;11050;52.222;20.916;2022-09-23T06:08:50;100602.31;;;9.54;100.00
21779;BME280;11050;52.222;20.916;2022-09-23T06:11:16;100602.31;;;9.54;100.00
21779;BME280;11050;52.222;20.916;2022-09-23T06:13:42;100593.38;;;9.59;100.00
21779;BME280;11050;52.222;20.916;2022-09-23T06:16:14;100603.59;;;9.64;100.00
21779;BME280;11050;52.222;20.916;2022-09-23T06:18:42;100593.09;;;9.72;100.00
21779;BME280;11050;52.222;20.916;2022-09-23T06:21:15;100594.22;;;9.99;100.00
21779;BME280;11050;52.222;20.916;2022-09-23T06:23:42;100590.03;;;10.20;100.00
21779;BME280;11050;52.222;20.916;2022-09-23T06:26:12;100594.06;;;10.29;100.00
21779;BME280;11050;52.222;20.916;2022-09-23T06:28:41;100597.41;;;10.31;100.00
21779;BME280;11050;52.222;20.916;2022-09-23T06:31:13;100593.81;;;10.30;100.00
21779;BME280;11050;52.222;20.916;2022-09-23T06:33:41;100589.63;;;10.28;100.00
21779;BME280;11050;52.222;20.916;2022-09-23T06:36:08;100597.19;;;10.21;100.00
21779;BME280;11050;52.222;20.916;2022-09-23T06:38:38;100592.88;;;10.25;100.00
21779;BME280;11050;52.222;20.916;2022-09-23T06:41:04;100593.22;;;10.28;100.00
21779;BME280;11050;52.222;20.916;2022-09-23T06:43:30;100592.50;;;10.33;100.00
21779;BME280;11050;52.222;20.916;2022-09-23T06:46:01;100589.63;;;10.28;100.00
21779;BME280;11050;52.222;20.916;2022-09-23T06:48:29;100596.56;;;10.30;100.00
21779;BME280;11050;52.222;20.916;2022-09-23T06:50:58;100587.75;;;10.45;100.00
21779;BME280;11050;52.222;20.916;2022-09-23T06:53:27;100585.78;;;10.57;100.00
21779;BME280;11050;52.222;20.916;2022-09-23T06:56:08;100596.41;;;10.82;100.00
21779;BME280;11050;52.222;20.916;2022-09-23T06:58:36;100590.00;;;10.93;100.00
21779;BME280;11050;52.222;20.916;2022-09-23T07:01:14;100594.66;;;11.09;100.00
21779;BME280;11050;52.222;20.916;2022-09-23T07:03:45;100600.25;;;11.14;100.00
21779;BME280;11050;52.222;20.916;2022-09-23T07:06:11;100600.75;;;11.27;100.00
21779;BME280;11050;52.222;20.916;2022-09-23T07:08:41;100604.16;;;11.34;100.00
21779;BME280;11050;52.222;20.916;2022-09-23T07:11:08;100606.50;;;11.42;100.00
21779;BME280;11050;52.222;20.916;2022-09-23T07:13:36;100606.56;;;11.48;100.00
21779;BME280;11050;52.222;20.916;2022-09-23T07:16:02;100608.75;;;11.45;100.00
21779;BME280;11050;52.222;20.916;2022-09-23T07:18:32;100607.31;;;11.43;100.00
21779;BME280;11050;52.222;20.916;2022-09-23T07:21:12;100605.78;;;11.52;100.00
21779;BME280;11050;52.222;20.916;2022-09-23T07:23:47;100608.66;;;11.57;100.00
21779;BME280;11050;52.222;20.916;2022-09-23T07:26:15;100604.41;;;11.50;100.00
21779;BME280;11050;52.222;20.916;2022-09-23T07:28:41;100599.28;;;11.58;100.00
21779;BME280;11050;52.222;20.916;2022-09-23T07:31:11;100605.31;;;11.55;100.00
21779;BME280;11050;52.222;20.916;2022-09-23T07:33:40;100608.91;;;11.56;100.00
21779;BME280;11050;52.222;20.916;2022-09-23T07:36:15;100594.56;;;11.54;100.00
21779;BME280;11050;52.222;20.916;2022-09-23T07:38:42;100605.69;;;11.64;100.00
21779;BME280;11050;52.222;20.916;2022-09-23T07:41:11;100601.66;;;11.66;100.00
21779;BME280;11050;52.222;20.916;2022-09-23T07:43:38;100611.38;;;11.74;100.00
21779;BME280;11050;52.222;20.916;2022-09-23T07:46:09;100591.22;;;11.68;100.00
21779;BME280;11050;52.222;20.916;2022-09-23T07:48:37;100602.03;;;11.75;100.00
21779;BME280;11050;52.222;20.916;2022-09-23T07:51:22;100603.06;;;11.69;100.00
21779;BME280;11050;52.222;20.916;2022-09-23T07:53:50;100593.38;;;11.66;100.00
21779;BME280;11050;52.222;20.916;2022-09-23T07:56:18;100593.72;;;11.70;100.00
21779;BME280;11050;52.222;20.916;2022-09-23T07:58:47;100599.47;;;11.68;100.00
21779;BME280;11050;52.222;20.916;2022-09-23T08:01:26;100610.06;;;11.76;100.00
21779;BME280;11050;52.222;20.916;2022-09-23T08:03:55;100598.78;;;11.78;100.00
21779;BME280;11050;52.222;20.916;2022-09-23T08:06:21;100596.03;;;11.78;100.00
21779;BME280;11050;52.222;20.916;2022-09-23T08:08:48;100590.19;;;11.96;100.00
21779;BME280;11050;52.222;20.916;2022-09-23T08:11:13;100591.06;;;12.18;100.00
21779;BME280;11050;52.222;20.916;2022-09-23T08:13:40;100593.16;;;12.32;100.00
21779;BME280;11050;52.222;20.916;2022-09-23T08:16:06;100600.16;;;12.45;100.00
21779;BME280;11050;52.222;20.916;2022-09-23T08:18:32;100599.09;;;12.46;100.00
21779;BME280;11050;52.222;20.916;2022-09-23T08:20:59;100591.13;;;12.50;100.00
21779;BME280;11050;52.222;20.916;2022-09-23T08:23:24;100583.75;;;12.55;100.00
21779;BME280;11050;52.222;20.916;2022-09-23T08:25:59;100589.44;;;12.75;100.00
21779;BME280;11050;52.222;20.916;2022-09-23T08:28:26;100586.22;;;12.83;98.97
21779;BME280;11050;52.222;20.916;2022-09-23T08:30:52;100583.47;;;12.83;98.31
21779;BME280;11050;52.222;20.916;2022-09-23T08:33:18;100579.97;;;12.93;99.49
21779;BME280;11050;52.222;20.916;2022-09-23T08:35:44;100573.50;;;13.09;97.26
21779;BME280;11050;52.222;20.916;2022-09-23T08:38:10;100582.22;;;13.27;97.36
21779;BME280;11050;52.222;20.916;2022-09-23T08:40:41;100584.84;;;13.44;94.89
21779;BME280;11050;52.222;20.916;2022-09-23T08:43:32;100581.91;;;13.61;92.96
21779;BME280;11050;52.222;20.916;2022-09-23T08:46:07;100577.53;;;13.75;91.59
21779;BME280;11050;52.222;20.916;2022-09-23T08:48:47;100577.31;;;13.81;89.52
21779;BME280;11050;52.222;20.916;2022-09-23T08:51:43;100572.94;;;13.95;88.40
21779;BME280;11050;52.222;20.916;2022-09-23T08:54:12;100571.66;;;14.18;88.22
21779;BME280;11050;52.222;20.916;2022-09-23T08:56:41;100574.56;;;14.48;87.24
21779;BME280;11050;52.222;20.916;2022-09-23T08:59:27;100568.50;;;14.56;84.54
21779;BME280;11050;52.222;20.916;2022-09-23T09:02:08;100571.00;;;14.73;81.77
21779;BME280;11050;52.222;20.916;2022-09-23T09:09:46;100556.34;;;15.12;77.67
21779;BME280;11050;52.222;20.916;2022-09-23T09:12:53;100561.34;;;15.15;75.18
21779;BME280;11050;52.222;20.916;2022-09-23T09:15:22;100553.84;;;15.31;75.12
21779;BME280;11050;52.222;20.916;2022-09-23T09:20:29;100550.84;;;16.17;73.68
21779;BME280;11050;52.222;20.916;2022-09-23T09:25:51;100558.00;;;16.81;67.84
21779;BME280;11050;52.222;20.916;2022-09-23T09:28:28;100560.94;;;16.56;68.35
21779;BME280;11050;52.222;20.916;2022-09-23T09:31:37;100551.66;;;16.27;71.34
21779;BME280;11050;52.222;20.916;2022-09-23T09:34:39;100545.91;;;16.13;71.69
21779;BME280;11050;52.222;20.916;2022-09-23T09:39:47;100539.25;;;16.09;73.45
21779;BME280;11050;52.222;20.916;2022-09-23T09:42:26;100544.97;;;16.28;67.46
21779;BME280;11050;52.222;20.916;2022-09-23T09:45:10;100546.78;;;16.58;63.49
21779;BME280;11050;52.222;20.916;2022-09-23T09:53:25;100538.16;;;16.98;57.43
21779;BME280;11050;52.222;20.916;2022-09-23T09:56:01;100540.72;;;17.23;54.96
21779;BME280;11050;52.222;20.916;2022-09-23T09:58:35;100532.41;;;17.18;51.72
21779;BME280;11050;52.222;20.916;2022-09-23T10:01:06;100543.88;;;17.12;50.63
21779;BME280;11050;52.222;20.916;2022-09-23T10:03:42;100529.53;;;16.99;51.77
21779;BME280;11050;52.222;20.916;2022-09-23T10:06:28;100523.00;;;17.14;50.82
21779;BME280;11050;52.222;20.916;2022-09-23T10:09:04;100527.00;;;17.32;50.05
21779;BME280;11050;52.222;20.916;2022-09-23T10:11:34;100523.84;;;17.43;48.44
21779;BME280;11050;52.222;20.916;2022-09-23T10:14:15;100517.16;;;17.44;49.68
21779;BME280;11050;52.222;20.916;2022-09-23T10:16:46;100519.13;;;17.44;47.93
21779;BME280;11050;52.222;20.916;2022-09-23T10:19:28;100513.44;;;17.59;48.78
21779;BME280;11050;52.222;20.916;2022-09-23T10:22:02;100519.63;;;17.74;45.43
21779;BME280;11050;52.222;20.916;2022-09-23T10:24:32;100508.09;;;17.86;46.30
21779;BME280;11050;52.222;20.916;2022-09-23T10:27:06;100507.19;;;17.90;45.95
21779;BME280;11050;52.222;20.916;2022-09-23T10:29:37;100498.84;;;17.90;46.07
21779;BME280;11050;52.222;20.916;2022-09-23T10:32:36;100495.16;;;18.19;46.66
21779;BME280;11050;52.222;20.916;2022-09-23T10:37:54;100504.84;;;18.96;43.51
21779;BME280;11050;52.222;20.916;2022-09-23T10:46:43;100491.38;;;19.16;42.53
21779;BME280;11050;52.222;20.916;2022-09-23T10:55:32;100491.69;;;19.15;42.84
21779;BME280;11050;52.222;20.916;2022-09-23T11:18:37;100480.13;;;20.57;38.27
21779;BME280;11050;52.222;20.916;2022-09-23T11:27:17;100479.66;;;21.30;33.48
21779;BME280;11050;52.222;20.916;2022-09-23T11:30:00;100483.34;;;20.50;35.20
21779;BME280;11050;52.222;20.916;2022-09-23T11:33:03;100475.84;;;20.10;36.55
21779;BME280;11050;52.222;20.916;2022-09-23T11:35:56;100468.78;;;20.40;37.75
21779;BME280;11050;52.222;20.916;2022-09-23T11:38:43;100469.06;;;20.96;36.25
21779;BME280;11050;52.222;20.916;2022-09-23T11:41:29;100476.09;;;20.94;35.45
21779;BME280;11050;52.222;20.916;2022-09-23T11:47:05;100478.41;;;20.92;35.57
21779;BME280;11050;52.222;20.916;2022-09-23T11:52:28;100455.47;;;23.15;31.75
21779;BME280;11050;52.222;20.916;2022-09-23T11:55:08;100453.19;;;24.21;29.62
21779;BME280;11050;52.222;20.916;2022-09-23T11:57:46;100462.91;;;25.06;27.40
21779;BME280;11050;52.222;20.916;2022-09-23T12:00:23;100460.50;;;25.17;26.75
21779;BME280;11050;52.222;20.916;2022-09-23T12:05:47;100462.66;;;25.32;27.21
21779;BME280;11050;52.222;20.916;2022-09-23T12:08:35;100459.75;;;24.34;27.28
21779;BME280;11050;52.222;20.916;2022-09-23T12:14:09;100439.16;;;22.06;33.23
21779;BME280;11050;52.222;20.916;2022-09-23T12:17:09;100436.53;;;21.22;34.80
21779;BME280;11050;52.222;20.916;2022-09-23T12:25:52;100436.97;;;23.14;32.62
21779;BME280;11050;52.222;20.916;2022-09-23T12:28:25;100443.06;;;24.50;30.52
21779;BME280;11050;52.222;20.916;2022-09-23T12:30:58;100437.97;;;25.86;28.75
21779;BME280;11050;52.222;20.916;2022-09-23T12:33:31;100438.88;;;26.78;26.43
21779;BME280;11050;52.222;20.916;2022-09-23T12:36:09;100438.84;;;26.90;25.77
21779;BME280;11050;52.222;20.916;2022-09-23T12:38:39;100441.38;;;27.23;25.90
21779;BME280;11050;52.222;20.916;2022-09-23T12:41:40;100438.44;;;27.62;24.02
21779;BME280;11050;52.222;20.916;2022-09-23T12:46:37;100438.78;;;28.42;23.55
21779;BME280;11050;52.222;20.916;2022-09-23T12:54:39;100431.97;;;26.23;26.34
21779;BME280;11050;52.222;20.916;2022-09-23T12:57:11;100428.97;;;25.11;27.53
21779;BME280;11050;52.222;20.916;2022-09-23T13:07:57;100413.75;;;23.89;29.32
21779;BME280;11050;52.222;20.916;2022-09-23T13:10:40;100406.97;;;23.14;30.57
21779;BME280;11050;52.222;20.916;2022-09-23T13:13:42;100406.53;;;22.01;32.27
21779;BME280;11050;52.222;20.916;2022-09-23T13:16:35;100410.22;;;21.23;34.53
21779;BME280;11050;52.222;20.916;2022-09-23T13:22:10;100405.78;;;20.47;36.60
21779;BME280;11050;52.222;20.916;2022-09-23T13:24:45;100410.53;;;20.25;36.64
21779;BME280;11050;52.222;20.916;2022-09-23T13:32:20;100391.19;;;19.38;38.58
21779;BME280;11050;52.222;20.916;2022-09-23T13:35:24;100391.38;;;19.15;39.91
21779;BME280;11050;52.222;20.916;2022-09-23T13:37:52;100389.19;;;18.98;40.51
21779;BME280;11050;52.222;20.916;2022-09-23T13:42:51;100375.66;;;18.91;41.16
21779;BME280;11050;52.222;20.916;2022-09-23T13:45:22;100379.66;;;18.85;41.30
21779;BME280;11050;52.222;20.916;2022-09-23T13:47:52;100381.19;;;18.78;42.52
21779;BME280;11050;52.222;20.916;2022-09-23T13:50:22;100368.59;;;18.67;42.40
21779;BME280;11050;52.222;20.916;2022-09-23T13:52:58;100378.56;;;18.54;43.09
21779;BME280;11050;52.222;20.916;2022-09-23T13:55:30;100370.00;;;18.51;42.74
21779;BME280;11050;52.222;20.916;2022-09-23T13:58:04;100375.88;;;18.49;42.59
21779;BME280;11050;52.222;20.916;2022-09-23T14:00:36;100365.03;;;18.48;42.62
21779;BME280;11050;52.222;20.916;2022-09-23T14:03:37;100372.47;;;18.84;42.14
21779;BME280;11050;52.222;20.916;2022-09-23T14:06:08;100372.56;;;18.79;41.95
21779;BME280;11050;52.222;20.916;2022-09-23T14:08:38;100355.69;;;18.57;42.25
21779;BME280;11050;52.222;20.916;2022-09-23T14:11:06;100362.34;;;18.43;42.67
21779;BME280;11050;52.222;20.916;2022-09-23T14:13:40;100354.38;;;18.36;43.48
21779;BME280;11050;52.222;20.916;2022-09-23T14:16:11;100364.34;;;18.37;43.35
21779;BME280;11050;52.222;20.916;2022-09-23T14:18:44;100354.84;;;18.25;44.04
21779;BME280;11050;52.222;20.916;2022-09-23T14:21:37;100363.88;;;18.17;44.08
21779;BME280;11050;52.222;20.916;2022-09-23T14:24:24;100360.72;;;18.23;44.23
21779;BME280;11050;52.222;20.916;2022-09-23T14:27:07;100360.59;;;18.47;43.49
21779;BME280;11050;52.222;20.916;2022-09-23T14:29:41;100360.88;;;19.86;41.16
21779;BME280;11050;52.222;20.916;2022-09-23T14:32:28;100352.16;;;21.77;37.71
21779;BME280;11050;52.222;20.916;2022-09-23T14:40:34;100359.03;;;26.89;29.00
21779;BME280;11050;52.222;20.916;2022-09-23T14:45:49;100360.38;;;28.58;25.32
21779;BME280;11050;52.222;20.916;2022-09-23T14:48:27;100371.91;;;29.11;24.54
21779;BME280;11050;52.222;20.916;2022-09-23T14:51:06;100368.59;;;29.73;23.26
21779;BME280;11050;52.222;20.916;2022-09-23T14:53:43;100358.94;;;30.04;23.17
21779;BME280;11050;52.222;20.916;2022-09-23T14:56:20;100351.91;;;30.50;22.50
21779;BME280;11050;52.222;20.916;2022-09-23T14:58:57;100361.53;;;30.75;22.06
21779;BME280;11050;52.222;20.916;2022-09-23T15:04:09;100356.91;;;29.29;22.77
21779;BME280;11050;52.222;20.916;2022-09-23T15:06:38;100357.41;;;27.82;25.09
21779;BME280;11050;52.222;20.916;2022-09-23T15:09:05;100339.19;;;26.86;25.78
21779;BME280;11050;52.222;20.916;2022-09-23T15:11:33;100341.09;;;26.82;26.29
21779;BME280;11050;52.222;20.916;2022-09-23T15:14:02;100347.84;;;27.86;25.04
21779;BME280;11050;52.222;20.916;2022-09-23T15:16:30;100349.22;;;28.65;23.79
21779;BME280;11050;52.222;20.916;2022-09-23T15:18:58;100354.59;;;28.93;23.50
21779;BME280;11050;52.222;20.916;2022-09-23T15:21:38;100335.41;;;28.45;23.83
21779;BME280;11050;52.222;20.916;2022-09-23T15:24:44;100342.31;;;26.69;26.70
21779;BME280;11050;52.222;20.916;2022-09-23T15:27:26;100322.66;;;25.53;28.17
21779;BME280;11050;52.222;20.916;2022-09-23T15:29:54;100331.44;;;25.03;29.60
21779;BME280;11050;52.222;20.916;2022-09-23T15:32:25;100337.88;;;25.04;29.55
21779;BME280;11050;52.222;20.916;2022-09-23T15:34:51;100335.38;;;25.47;29.46
21779;BME280;11050;52.222;20.916;2022-09-23T15:37:17;100332.59;;;25.02;29.64
21779;BME280;11050;52.222;20.916;2022-09-23T15:39:43;100336.28;;;24.17;32.21
21779;BME280;11050;52.222;20.916;2022-09-23T15:42:09;100329.03;;;23.37;32.64